createdAt,value
2018-11-27T00:00:19.099Z,8.42
2018-11-27T00:02:47.528Z,8.28
2018-11-27T00:05:16.031Z,8.37
2018-11-27T00:07:44.427Z,8.46
2018-11-27T00:10:12.775Z,8.60
2018-11-27T00:12:41.153Z,8.29
2018-11-27T00:15:11.583Z,8.28
2018-11-27T00:17:39.927Z,8.03
2018-11-27T00:20:10.554Z,8.28
2018-11-27T00:22:39.184Z,8.26
2018-11-27T00:25:12.287Z,7.77
2018-11-27T00:27:43.615Z,8.12
2018-11-27T00:30:13.713Z,8.45
2018-11-27T00:32:42.067Z,8.43
2018-11-27T00:35:13.238Z,8.56
2018-11-27T00:37:41.609Z,8.31
2018-11-27T00:40:19.026Z,8.18
2018-11-27T00:42:47.398Z,8.30
2018-11-27T00:45:16.543Z,8.19
2018-11-27T00:47:45.789Z,8.33
2018-11-27T00:50:15.790Z,8.18
2018-11-27T00:52:44.225Z,8.55
2018-11-27T00:55:14.404Z,8.15
2018-11-27T00:57:43.645Z,7.84
2018-11-27T01:00:18.183Z,8.08
2018-11-27T01:02:46.620Z,8.36
2018-11-27T01:05:16.820Z,8.21
2018-11-27T01:07:45.218Z,8.47
2018-11-27T01:10:16.410Z,8.37
2018-11-27T01:12:44.757Z,8.04
2018-11-27T01:15:13.715Z,8.13
2018-11-27T01:17:46.894Z,8.00
2018-11-27T01:20:16.382Z,8.02
2018-11-27T01:22:44.766Z,8.30
2018-11-27T01:25:13.320Z,8.20
2018-11-27T01:27:41.665Z,8.06
2018-11-27T01:30:14.852Z,8.32
2018-11-27T01:32:43.319Z,8.35
2018-11-27T01:35:15.624Z,8.17
2018-11-27T01:37:44.059Z,8.36
2018-11-27T01:40:15.227Z,8.17
2018-11-27T01:42:43.622Z,7.89
2018-11-27T01:45:12.901Z,8.36
2018-11-27T01:47:41.309Z,8.18
2018-11-27T01:50:11.911Z,7.89
2018-11-27T01:52:40.243Z,7.91
2018-11-27T01:55:12.454Z,8.05
2018-11-27T01:57:40.866Z,8.08
2018-11-27T02:00:18.113Z,8.28
2018-11-27T02:02:46.511Z,8.18
2018-11-27T02:05:14.891Z,8.18
2018-11-27T02:07:43.217Z,8.17
2018-11-27T02:10:12.541Z,8.21
2018-11-27T02:12:41.913Z,8.30
2018-11-27T02:15:12.060Z,7.94
2018-11-27T02:17:40.449Z,7.99
2018-11-27T02:20:10.397Z,8.13
2018-11-27T02:22:38.777Z,7.74
2018-11-27T02:25:11.429Z,8.03
2018-11-27T02:27:40.029Z,7.95
2018-11-27T02:30:10.391Z,7.69
2018-11-27T02:32:38.728Z,8.10
2018-11-27T02:35:09.090Z,8.03
2018-11-27T02:37:37.379Z,7.94
2018-11-27T02:40:13.024Z,8.11
2018-11-27T02:42:41.471Z,7.86
2018-11-27T02:45:11.118Z,8.21
2018-11-27T02:47:39.779Z,8.02
2018-11-27T02:50:12.658Z,7.91
2018-11-27T02:52:40.996Z,8.28
2018-11-27T02:55:12.883Z,8.14
2018-11-27T02:57:41.192Z,8.17
2018-11-27T03:00:16.337Z,8.26
2018-11-27T03:02:44.679Z,8.01
2018-11-27T03:05:15.393Z,7.69
2018-11-27T03:07:43.770Z,7.89
2018-11-27T03:10:14.933Z,7.93
2018-11-27T03:12:43.335Z,8.13
2018-11-27T03:15:12.870Z,8.24
2018-11-27T03:17:41.232Z,8.19
2018-11-27T03:20:11.314Z,8.22
2018-11-27T03:22:39.794Z,8.08
2018-11-27T03:25:13.966Z,8.21
2018-11-27T03:27:42.587Z,7.61
2018-11-27T03:30:14.991Z,7.88
2018-11-27T03:32:43.461Z,8.20
2018-11-27T03:35:12.847Z,8.32
2018-11-27T03:37:41.199Z,8.15
2018-11-27T03:40:19.954Z,8.31
2018-11-27T03:42:48.337Z,7.98
2018-11-27T03:45:16.995Z,8.03
2018-11-27T03:47:45.378Z,8.35
2018-11-27T03:50:16.652Z,8.16
2018-11-27T03:52:44.962Z,8.19
2018-11-27T03:55:13.686Z,8.15
2018-11-27T03:57:42.073Z,7.93
2018-11-27T04:00:19.781Z,8.07
2018-11-27T04:02:49.443Z,8.08
2018-11-27T04:05:17.894Z,8.22
2018-11-27T04:07:46.277Z,7.93
2018-11-27T04:10:17.598Z,8.22
2018-11-27T04:12:45.901Z,8.16
2018-11-27T04:15:14.369Z,7.95
2018-11-27T04:17:42.738Z,7.85
2018-11-27T04:20:11.715Z,7.74
2018-11-27T04:22:40.396Z,7.94
2018-11-27T04:25:11.971Z,8.08
2018-11-27T04:27:40.541Z,8.13
2018-11-27T04:30:13.603Z,8.04
2018-11-27T04:32:42.079Z,8.34
2018-11-27T04:35:11.713Z,8.41
2018-11-27T04:37:40.057Z,8.33
2018-11-27T04:40:10.092Z,8.09
2018-11-27T04:42:38.504Z,8.22
2018-11-27T04:45:24.352Z,8.07
2018-11-27T04:47:52.663Z,8.01
2018-11-27T04:50:21.227Z,7.97
2018-11-27T04:52:49.532Z,8.13
2018-11-27T04:55:19.873Z,8.08
2018-11-27T04:57:48.864Z,8.04
2018-11-27T05:00:19.069Z,7.85
2018-11-27T05:02:47.365Z,7.70
2018-11-27T05:05:15.743Z,7.92
2018-11-27T05:07:44.145Z,7.99
2018-11-27T05:10:15.560Z,7.93
2018-11-27T05:12:44.091Z,8.01
2018-11-27T05:15:14.422Z,8.12
2018-11-27T05:17:47.880Z,7.76
2018-11-27T05:20:11.998Z,8.10
2018-11-27T05:22:40.327Z,8.37
2018-11-27T05:25:11.979Z,8.18
2018-11-27T05:27:41.399Z,7.96
2018-11-27T05:30:13.221Z,8.04
2018-11-27T05:32:41.609Z,8.12
2018-11-27T05:35:12.135Z,8.09
2018-11-27T05:37:41.257Z,7.93
2018-11-27T05:40:12.531Z,7.90
2018-11-27T05:42:40.911Z,7.92
2018-11-27T05:45:11.182Z,7.90
2018-11-27T05:47:39.634Z,8.02
2018-11-27T05:50:09.919Z,8.04
2018-11-27T05:52:38.430Z,7.94
2018-11-27T05:55:07.867Z,7.86
2018-11-27T05:57:36.196Z,7.85
2018-11-27T06:00:08.630Z,8.07
2018-11-27T06:02:36.995Z,7.73
2018-11-27T06:05:07.173Z,8.13
2018-11-27T06:07:35.526Z,7.96
2018-11-27T06:10:04.187Z,7.83
2018-11-27T06:12:32.557Z,7.88
2018-11-27T06:15:00.916Z,8.37
2018-11-27T06:17:29.198Z,8.16
2018-11-27T06:19:57.578Z,8.11
2018-11-27T06:22:26.042Z,7.68
2018-11-27T06:24:54.349Z,7.81
2018-11-27T06:27:22.811Z,7.98
2018-11-27T06:29:51.136Z,7.93
2018-11-27T06:32:21.499Z,7.85
2018-11-27T06:34:47.921Z,7.80
2018-11-27T06:37:16.357Z,7.97
2018-11-27T06:39:44.735Z,8.30
2018-11-27T06:42:13.033Z,8.11
2018-11-27T06:44:41.388Z,8.24
2018-11-27T06:47:09.753Z,8.12
2018-11-27T06:49:38.183Z,8.20
2018-11-27T06:52:06.528Z,8.24
2018-11-27T06:54:34.852Z,7.96
2018-11-27T06:57:03.165Z,8.14
2018-11-27T06:59:31.540Z,8.07
2018-11-27T07:01:59.947Z,8.06
2018-11-27T07:04:28.326Z,8.09
2018-11-27T07:06:56.714Z,7.85
2018-11-27T07:09:25.204Z,7.98
2018-11-27T07:11:53.609Z,7.76
2018-11-27T07:14:21.934Z,7.77
2018-11-27T07:16:50.268Z,8.20
2018-11-27T07:19:18.663Z,7.44
2018-11-27T07:21:47.052Z,7.80
2018-11-27T07:24:15.472Z,7.82
2018-11-27T07:26:43.799Z,8.03
2018-11-27T07:29:12.090Z,7.72
2018-11-27T07:31:40.382Z,7.67
2018-11-27T07:34:08.830Z,7.70
2018-11-27T07:36:37.098Z,7.67
2018-11-27T07:39:06.902Z,7.97
2018-11-27T07:41:35.179Z,7.74
2018-11-27T07:44:03.458Z,7.84
2018-11-27T07:46:31.787Z,8.09
2018-11-27T07:49:00.122Z,7.83
2018-11-27T07:51:28.430Z,7.86
2018-11-27T07:53:56.766Z,8.02
2018-11-27T07:56:25.140Z,8.03
2018-11-27T07:58:53.484Z,8.09
2018-11-27T08:01:21.832Z,7.91
2018-11-27T08:03:50.210Z,8.07
2018-11-27T08:06:18.587Z,7.63
2018-11-27T08:08:46.906Z,8.20
2018-11-27T08:11:15.242Z,8.22
2018-11-27T08:13:43.578Z,8.04
2018-11-27T08:16:11.898Z,7.98
2018-11-27T08:18:40.200Z,7.76
2018-11-27T08:21:08.484Z,7.85
2018-11-27T08:23:36.873Z,7.96
2018-11-27T08:26:05.644Z,7.72
2018-11-27T08:28:34.106Z,8.06
2018-11-27T08:31:02.522Z,7.98
2018-11-27T08:33:30.845Z,8.37
2018-11-27T08:35:59.221Z,8.03
2018-11-27T08:38:27.524Z,8.16
2018-11-27T08:40:55.853Z,7.44
2018-11-27T08:43:24.136Z,7.77
2018-11-27T08:45:52.448Z,7.87
2018-11-27T08:48:20.915Z,7.99
2018-11-27T08:50:49.284Z,8.11
2018-11-27T08:53:17.620Z,8.28
2018-11-27T08:55:45.919Z,7.98
2018-11-27T08:58:16.498Z,7.93
2018-11-27T09:00:44.793Z,8.09
2018-11-27T09:03:13.166Z,8.15
2018-11-27T09:05:41.517Z,8.15
2018-11-27T09:08:09.875Z,7.81
2018-11-27T09:10:38.227Z,8.34
2018-11-27T09:13:07.029Z,7.78
2018-11-27T09:15:35.409Z,7.92
2018-11-27T09:18:21.114Z,7.86
2018-11-27T09:20:49.455Z,8.03
2018-11-27T09:23:17.802Z,8.21
2018-11-27T09:25:46.160Z,8.20
2018-11-27T09:28:14.528Z,8.18
2018-11-27T09:30:42.978Z,8.25
2018-11-27T09:33:11.382Z,7.89
2018-11-27T09:35:39.879Z,7.72
2018-11-27T09:38:08.721Z,8.07
2018-11-27T09:40:37.264Z,8.12
2018-11-27T09:43:06.310Z,8.31
2018-11-27T09:45:35.295Z,8.28
2018-11-27T09:48:03.657Z,8.17
2018-11-27T09:50:31.971Z,8.01
2018-11-27T09:53:00.296Z,8.09
2018-11-27T09:55:28.734Z,8.32
2018-11-27T09:57:59.247Z,8.09
2018-11-27T10:00:28.997Z,8.54
2018-11-27T10:03:01.024Z,8.42
2018-11-27T10:05:29.366Z,8.26
2018-11-27T10:07:57.727Z,8.13
2018-11-27T10:10:26.588Z,8.12
2018-11-27T10:12:54.933Z,8.24
2018-11-27T10:15:25.531Z,8.07
2018-11-27T10:17:58.068Z,8.10
2018-11-27T10:20:27.591Z,8.32
2018-11-27T10:22:55.930Z,8.45
2018-11-27T10:25:25.094Z,8.29
2018-11-27T10:27:53.437Z,8.18
2018-11-27T10:30:23.785Z,7.92
2018-11-27T10:32:53.253Z,8.05
2018-11-27T10:35:28.409Z,7.61
2018-11-27T10:37:56.754Z,8.08
2018-11-27T10:40:25.079Z,8.39
2018-11-27T10:42:53.449Z,8.51
2018-11-27T10:45:22.650Z,8.33
2018-11-27T10:47:52.998Z,8.46
2018-11-27T10:50:21.393Z,8.18
2018-11-27T10:52:50.855Z,8.12
2018-11-27T10:55:19.745Z,7.90
2018-11-27T10:57:48.113Z,8.20
2018-11-27T11:00:23.445Z,8.32
2018-11-27T11:02:57.071Z,8.56
2018-11-27T11:05:27.752Z,8.20
2018-11-27T11:07:55.170Z,8.46
2018-11-27T11:10:23.507Z,7.98
2018-11-27T11:12:51.864Z,8.40
2018-11-27T11:15:20.187Z,8.47
2018-11-27T11:17:48.556Z,8.72
2018-11-27T11:20:16.974Z,8.26
2018-11-27T11:22:45.319Z,8.26
2018-11-27T11:25:16.884Z,8.29
2018-11-27T11:27:46.201Z,8.49
2018-11-27T11:30:15.923Z,8.37
2018-11-27T11:32:44.257Z,8.37
2018-11-27T11:35:12.825Z,8.22
2018-11-27T11:37:41.385Z,8.25
2018-11-27T11:40:16.398Z,8.57
2018-11-27T11:42:44.828Z,8.69
2018-11-27T11:45:13.418Z,8.29
2018-11-27T11:47:42.115Z,7.95
2018-11-27T11:50:41.293Z,8.54
2018-11-27T11:53:15.931Z,8.44
2018-11-27T11:55:44.604Z,8.60
2018-11-27T11:58:13.043Z,8.45
2018-11-27T12:00:47.101Z,8.59
2018-11-27T12:03:15.474Z,8.53
2018-11-27T12:05:43.862Z,8.37
2018-11-27T12:08:12.216Z,8.55
2018-11-27T12:10:40.628Z,8.16
2018-11-27T12:13:10.043Z,8.38
2018-11-27T12:15:38.410Z,7.77
2018-11-27T12:18:07.533Z,8.02
2018-11-27T12:20:35.906Z,8.16
2018-11-27T12:23:04.465Z,8.17
2018-11-27T12:25:32.821Z,8.38
2018-11-27T12:28:01.188Z,8.46
2018-11-27T12:30:29.596Z,8.39
2018-11-27T12:32:57.990Z,8.39
2018-11-27T12:35:26.317Z,8.40
2018-11-27T12:37:54.769Z,8.19
2018-11-27T12:40:24.115Z,8.00
2018-11-27T12:42:52.828Z,8.20
2018-11-27T12:45:24.207Z,7.76
2018-11-27T12:47:53.049Z,7.68
2018-11-27T12:50:24.675Z,8.11
2018-11-27T12:52:53.062Z,7.71
2018-11-27T12:55:23.148Z,8.13
2018-11-27T12:57:51.544Z,8.11
2018-11-27T13:00:22.026Z,8.40
2018-11-27T13:02:50.601Z,7.98
2018-11-27T13:05:27.958Z,7.84
2018-11-27T13:08:00.045Z,7.71
2018-11-27T13:10:28.499Z,7.74
2018-11-27T13:12:56.904Z,7.81
2018-11-27T13:15:25.296Z,7.93
2018-11-27T13:17:53.972Z,8.07
2018-11-27T13:20:22.293Z,8.32
2018-11-27T13:22:51.241Z,8.12
2018-11-27T13:25:21.774Z,7.87
2018-11-27T13:27:51.335Z,8.04
2018-11-27T13:30:28.014Z,8.09
2018-11-27T13:32:59.125Z,8.20
2018-11-27T13:35:27.604Z,8.21
2018-11-27T13:37:56.029Z,7.80
2018-11-27T13:40:24.495Z,8.02
2018-11-27T13:42:52.842Z,8.13
2018-11-27T13:45:21.302Z,7.84
2018-11-27T13:47:49.730Z,8.11
2018-11-27T13:50:18.289Z,7.72
2018-11-27T13:52:46.719Z,7.93
2018-11-27T13:55:18.087Z,8.28
2018-11-27T13:57:46.551Z,7.84
2018-11-27T14:00:16.128Z,7.86
2018-11-27T14:02:48.472Z,7.77
2018-11-27T14:05:18.182Z,7.84
2018-11-27T14:07:46.711Z,8.04
2018-11-27T14:10:15.215Z,7.87
2018-11-27T14:12:43.606Z,7.63
2018-11-27T14:15:24.575Z,7.21
2018-11-27T14:17:59.855Z,7.43
2018-11-27T14:20:28.785Z,7.78
2018-11-27T14:22:57.146Z,7.73
2018-11-27T14:25:25.448Z,7.50
2018-11-27T14:27:53.969Z,7.90
2018-11-27T14:30:23.858Z,7.72
2018-11-27T14:32:52.491Z,7.62
2018-11-27T14:35:21.756Z,7.81
2018-11-27T14:37:51.274Z,7.62
2018-11-27T14:40:22.797Z,7.53
2018-11-27T14:42:51.181Z,7.86
2018-11-27T14:45:21.872Z,7.56
2018-11-27T14:47:51.415Z,7.22
2018-11-27T14:50:19.863Z,7.30
2018-11-27T14:52:48.221Z,7.12
2018-11-27T14:55:21.674Z,7.58
2018-11-27T14:57:50.881Z,7.31
2018-11-27T15:00:20.375Z,7.26
2018-11-27T15:02:48.767Z,7.71
2018-11-27T15:05:24.958Z,7.50
2018-11-27T15:07:53.386Z,7.77
2018-11-27T15:10:21.784Z,7.63
2018-11-27T15:12:50.162Z,7.46
2018-11-27T15:15:18.618Z,7.60
2018-11-27T15:17:47.038Z,7.29
2018-11-27T15:20:17.113Z,7.60
2018-11-27T15:22:45.896Z,7.80
2018-11-27T15:25:14.326Z,7.91
2018-11-27T15:27:42.798Z,7.19
2018-11-27T15:30:13.507Z,7.71
2018-11-27T15:32:41.910Z,7.74
2018-11-27T15:35:11.393Z,7.85
2018-11-27T15:37:42.943Z,7.55
2018-11-27T15:40:32.726Z,7.73
2018-11-27T15:43:05.949Z,7.79
2018-11-27T15:45:34.939Z,7.69
2018-11-27T15:48:04.415Z,7.60
2018-11-27T15:50:32.809Z,7.38
2018-11-27T15:53:01.149Z,7.24
2018-11-27T15:55:33.579Z,7.56
2018-11-27T15:58:06.234Z,7.33
2018-11-27T16:00:34.622Z,7.31
2018-11-27T16:03:02.978Z,7.39
2018-11-27T16:05:31.321Z,7.65
2018-11-27T16:07:59.784Z,7.65
2018-11-27T16:10:28.142Z,7.63
2018-11-27T16:12:56.499Z,7.55
2018-11-27T16:15:24.910Z,7.78
2018-11-27T16:17:53.205Z,7.76
2018-11-27T16:20:22.351Z,7.44
2018-11-27T16:22:51.702Z,7.57
2018-11-27T16:25:23.867Z,7.66
2018-11-27T16:27:52.210Z,7.60
2018-11-27T16:30:22.901Z,7.60
2018-11-27T16:32:51.329Z,7.53
2018-11-27T16:35:19.751Z,7.91
2018-11-27T16:37:51.290Z,7.88
2018-11-27T16:40:20.884Z,7.78
2018-11-27T16:42:49.260Z,7.64
2018-11-27T16:45:18.569Z,7.51
2018-11-27T16:47:47.145Z,7.56
2018-11-27T16:50:16.253Z,7.45
2018-11-27T16:52:44.837Z,7.70
2018-11-27T16:55:15.101Z,7.63
2018-11-27T16:57:43.480Z,7.73
2018-11-27T17:00:16.185Z,7.70
2018-11-27T17:02:44.670Z,7.36
2018-11-27T17:05:13.092Z,7.55
2018-11-27T17:07:41.535Z,7.39
2018-11-27T17:10:14.082Z,7.29
2018-11-27T17:12:42.670Z,7.17
2018-11-27T17:15:13.134Z,7.51
2018-11-27T17:17:41.526Z,7.36
2018-11-27T17:20:17.165Z,7.53
2018-11-27T17:22:45.482Z,7.51
2018-11-27T17:25:13.862Z,7.59
2018-11-27T17:27:42.328Z,7.64
2018-11-27T17:30:20.875Z,7.69
2018-11-27T17:32:49.248Z,7.55
2018-11-27T17:35:17.638Z,7.42
2018-11-27T17:37:46.012Z,7.69
2018-11-27T17:40:14.430Z,7.78
2018-11-27T17:42:42.851Z,7.71
2018-11-27T17:45:14.070Z,7.63
2018-11-27T17:47:42.695Z,7.60
2018-11-27T17:50:12.266Z,7.30
2018-11-27T17:52:40.687Z,7.29
2018-11-27T17:55:10.991Z,7.35
2018-11-27T17:57:39.290Z,7.47
2018-11-27T18:00:15.745Z,7.70
2018-11-27T18:02:46.706Z,7.85
2018-11-27T18:05:15.062Z,7.41
2018-11-27T18:07:43.557Z,7.68
2018-11-27T18:10:12.355Z,7.47
2018-11-27T18:12:40.904Z,7.45
2018-11-27T18:15:11.982Z,7.63
2018-11-27T18:17:40.314Z,7.70
2018-11-27T18:20:09.887Z,7.52
2018-11-27T18:22:38.263Z,7.53
2018-11-27T18:25:08.598Z,7.53
2018-11-27T18:27:37.025Z,7.41
2018-11-27T18:30:08.844Z,7.50
2018-11-27T18:32:37.150Z,7.26
2018-11-27T18:35:05.947Z,7.60
2018-11-27T18:37:34.479Z,7.58
2018-11-27T18:40:02.875Z,7.49
2018-11-27T18:42:31.143Z,7.67
2018-11-27T18:44:59.475Z,7.49
2018-11-27T18:47:27.960Z,7.57
2018-11-27T18:49:56.329Z,7.50
2018-11-27T18:52:24.732Z,7.36
2018-11-27T18:54:53.138Z,7.21
2018-11-27T18:57:22.416Z,7.73
2018-11-27T18:59:50.805Z,7.52
2018-11-27T19:02:19.188Z,7.17
2018-11-27T19:04:47.709Z,7.66
2018-11-27T19:07:16.112Z,7.68
2018-11-27T19:09:44.772Z,7.90
2018-11-27T19:12:13.198Z,7.77
2018-11-27T19:14:41.621Z,7.38
2018-11-27T19:17:10.030Z,7.39
2018-11-27T19:19:38.403Z,7.26
2018-11-27T19:22:07.010Z,7.50
2018-11-27T19:24:35.358Z,7.66
2018-11-27T19:27:03.735Z,7.68
2018-11-27T19:29:32.225Z,7.39
2018-11-27T19:32:00.646Z,7.40
2018-11-27T19:34:29.214Z,7.64
2018-11-27T19:36:57.693Z,7.25
2018-11-27T19:39:26.189Z,7.83
2018-11-27T19:41:54.589Z,7.86
2018-11-27T19:44:23.462Z,7.64
2018-11-27T19:46:52.208Z,7.27
2018-11-27T19:49:20.612Z,7.62
2018-11-27T19:51:49.158Z,7.91
2018-11-27T19:54:17.567Z,7.88
2018-11-27T19:56:45.975Z,7.50
2018-11-27T19:59:32.418Z,7.47
2018-11-27T20:05:19.423Z,7.11
2018-11-27T20:07:47.907Z,7.06
2018-11-27T20:10:16.818Z,7.50
2018-11-27T20:12:45.372Z,7.23
2018-11-27T20:15:21.470Z,6.98
2018-11-27T20:17:50.611Z,7.32
2018-11-27T20:20:20.072Z,6.96
2018-11-27T20:22:48.563Z,7.12
2018-11-27T20:25:18.060Z,7.11
2018-11-27T20:27:46.579Z,7.59
2018-11-27T20:30:16.383Z,7.44
2018-11-27T20:32:46.277Z,6.97
2018-11-27T20:35:15.180Z,6.99
2018-11-27T20:37:44.139Z,6.91
2018-11-27T20:40:13.718Z,6.82
2018-11-27T20:42:42.344Z,6.96
2018-11-27T20:45:19.186Z,7.17
2018-11-27T20:47:42.633Z,7.65
2018-11-27T20:50:13.744Z,7.13
2018-11-27T20:52:42.308Z,7.33
2018-11-27T20:55:10.801Z,7.27
2018-11-27T20:57:39.414Z,6.76
2018-11-27T21:00:13.510Z,7.06
2018-11-27T21:02:41.994Z,7.02
2018-11-27T21:05:10.775Z,7.22
2018-11-27T21:07:39.254Z,7.35
2018-11-27T21:10:11.689Z,6.84
2018-11-27T21:12:40.532Z,7.15
2018-11-27T21:15:11.535Z,7.49
2018-11-27T21:17:39.911Z,7.37
2018-11-27T21:20:10.334Z,7.40
2018-11-27T21:22:38.757Z,7.28
2018-11-27T21:25:12.949Z,7.48
2018-11-27T21:27:41.588Z,7.38
2018-11-27T21:30:14.146Z,7.09
2018-11-27T21:32:42.521Z,6.95
2018-11-27T21:35:12.305Z,7.42
2018-11-27T21:37:41.716Z,7.42
2018-11-27T21:40:13.134Z,7.19
2018-11-27T21:42:41.653Z,7.24
2018-11-27T21:45:15.883Z,7.21
2018-11-27T21:47:44.518Z,7.22
2018-11-27T21:50:18.096Z,7.21
2018-11-27T21:52:46.558Z,7.13
2018-11-27T21:55:15.430Z,7.35
2018-11-27T21:57:44.014Z,7.51
2018-11-27T22:00:18.215Z,7.62
2018-11-27T22:02:46.617Z,7.05
2018-11-27T22:05:15.290Z,7.47
2018-11-27T22:07:44.074Z,7.46
2018-11-27T22:10:14.459Z,6.78
2018-11-27T22:12:43.969Z,6.99
2018-11-27T22:15:17.779Z,6.96
2018-11-27T22:17:46.304Z,7.01
2018-11-27T22:20:14.876Z,7.24
2018-11-27T22:22:43.365Z,6.88
2018-11-27T22:25:12.313Z,7.00
2018-11-27T22:27:40.824Z,6.85
2018-11-27T22:30:12.664Z,7.18
2018-11-27T22:32:42.037Z,7.58
2018-11-27T22:35:10.690Z,7.26
2018-11-27T22:37:39.176Z,7.31
2018-11-27T22:40:10.243Z,7.56
2018-11-27T22:42:38.825Z,7.41
2018-11-27T22:45:29.808Z,7.14
2018-11-27T22:47:58.175Z,7.24
2018-11-27T22:50:26.664Z,7.42
2018-11-27T22:52:55.257Z,7.15
2018-11-27T22:55:23.634Z,7.44
2018-11-27T22:57:52.061Z,6.73
2018-11-27T23:00:27.017Z,6.71
2018-11-27T23:02:55.418Z,6.64
2018-11-27T23:05:23.802Z,6.95
2018-11-27T23:07:52.264Z,7.00
2018-11-27T23:10:20.657Z,6.55
2018-11-27T23:12:49.036Z,6.83
2018-11-27T23:15:18.594Z,6.34
2018-11-27T23:17:46.922Z,6.99
2018-11-27T23:20:16.321Z,6.41
2018-11-27T23:22:44.678Z,7.08
2018-11-27T23:25:16.927Z,6.71
2018-11-27T23:27:45.289Z,6.71
2018-11-27T23:30:16.686Z,7.20
2018-11-27T23:32:45.083Z,6.78
2018-11-27T23:35:13.537Z,6.55
2018-11-27T23:37:41.944Z,6.56
2018-11-27T23:40:12.222Z,6.58
2018-11-27T23:42:40.915Z,6.46
2018-11-27T23:45:13.330Z,6.29
2018-11-27T23:47:41.751Z,6.35
2018-11-27T23:50:11.906Z,6.29
2018-11-27T23:52:40.276Z,6.87
2018-11-27T23:55:09.798Z,6.96
2018-11-27T23:57:38.222Z,7.06
